sensor_id;sensor_type;location;lat;lon;timestamp;temperature;humidity
49124;DHT22;48506;48.202;16.274;2022-12-29T00:01:31;1.50;98.90
49124;DHT22;48506;48.202;16.274;2022-12-29T00:03:58;1.50;98.80
49124;DHT22;48506;48.202;16.274;2022-12-29T00:06:24;1.50;98.80
49124;DHT22;48506;48.202;16.274;2022-12-29T00:08:50;1.50;98.80
49124;DHT22;48506;48.202;16.274;2022-12-29T00:11:19;1.50;98.70
49124;DHT22;48506;48.202;16.274;2022-12-29T00:13:45;1.40;98.70
49124;DHT22;48506;48.202;16.274;2022-12-29T00:16:30;1.40;98.70
49124;DHT22;48506;48.202;16.274;2022-12-29T00:18:56;1.40;98.90
49124;DHT22;48506;48.202;16.274;2022-12-29T00:21:24;1.40;98.90
49124;DHT22;48506;48.202;16.274;2022-12-29T00:24:17;1.40;98.90
49124;DHT22;48506;48.202;16.274;2022-12-29T00:29:42;1.30;98.90
49124;DHT22;48506;48.202;16.274;2022-12-29T00:32:26;1.30;98.70
49124;DHT22;48506;48.202;16.274;2022-12-29T00:35:15;1.30;98.80
49124;DHT22;48506;48.202;16.274;2022-12-29T00:37:43;1.20;99.00
49124;DHT22;48506;48.202;16.274;2022-12-29T00:40:30;1.20;98.90
49124;DHT22;48506;48.202;16.274;2022-12-29T00:43:14;1.20;98.90
49124;DHT22;48506;48.202;16.274;2022-12-29T00:45:58;1.20;98.90
49124;DHT22;48506;48.202;16.274;2022-12-29T00:48:24;1.20;98.80
49124;DHT22;48506;48.202;16.274;2022-12-29T00:51:08;1.20;98.90
49124;DHT22;48506;48.202;16.274;2022-12-29T00:53:34;1.20;98.80
49124;DHT22;48506;48.202;16.274;2022-12-29T00:56:00;1.20;98.90
49124;DHT22;48506;48.202;16.274;2022-12-29T00:58:30;1.20;98.90
49124;DHT22;48506;48.202;16.274;2022-12-29T01:01:07;1.10;99.00
49124;DHT22;48506;48.202;16.274;2022-12-29T01:03:37;1.10;99.10
49124;DHT22;48506;48.202;16.274;2022-12-29T01:06:05;1.10;99.10
49124;DHT22;48506;48.202;16.274;2022-12-29T01:08:31;1.10;99.10
49124;DHT22;48506;48.202;16.274;2022-12-29T01:11:09;1.10;99.10
49124;DHT22;48506;48.202;16.274;2022-12-29T01:13:35;1.20;99.10
49124;DHT22;48506;48.202;16.274;2022-12-29T01:16:05;1.20;99.30
49124;DHT22;48506;48.202;16.274;2022-12-29T01:18:32;1.20;99.20
49124;DHT22;48506;48.202;16.274;2022-12-29T01:21:04;1.20;99.10
49124;DHT22;48506;48.202;16.274;2022-12-29T01:23:31;1.20;99.00
49124;DHT22;48506;48.202;16.274;2022-12-29T01:26:09;1.20;99.00
49124;DHT22;48506;48.202;16.274;2022-12-29T01:28:35;1.10;98.90
49124;DHT22;48506;48.202;16.274;2022-12-29T01:31:01;1.10;98.90
49124;DHT22;48506;48.202;16.274;2022-12-29T01:33:27;1.10;99.00
49124;DHT22;48506;48.202;16.274;2022-12-29T01:35:53;1.10;98.90
49124;DHT22;48506;48.202;16.274;2022-12-29T01:38:19;1.10;99.00
49124;DHT22;48506;48.202;16.274;2022-12-29T01:40:47;1.10;99.00
49124;DHT22;48506;48.202;16.274;2022-12-29T01:43:13;1.10;99.00
49124;DHT22;48506;48.202;16.274;2022-12-29T01:45:52;1.10;99.00
49124;DHT22;48506;48.202;16.274;2022-12-29T01:48:20;1.10;98.90
49124;DHT22;48506;48.202;16.274;2022-12-29T01:50:50;1.00;98.80
49124;DHT22;48506;48.202;16.274;2022-12-29T01:53:27;1.00;98.80
49124;DHT22;48506;48.202;16.274;2022-12-29T01:55:58;1.00;98.80
49124;DHT22;48506;48.202;16.274;2022-12-29T01:58:30;1.00;98.90
49124;DHT22;48506;48.202;16.274;2022-12-29T02:00:56;1.00;98.90
49124;DHT22;48506;48.202;16.274;2022-12-29T02:03:24;0.90;98.80
49124;DHT22;48506;48.202;16.274;2022-12-29T02:06:08;1.00;98.70
49124;DHT22;48506;48.202;16.274;2022-12-29T02:08:38;0.90;98.70
49124;DHT22;48506;48.202;16.274;2022-12-29T02:11:05;0.90;98.70
49124;DHT22;48506;48.202;16.274;2022-12-29T02:13:31;0.90;98.70
49124;DHT22;48506;48.202;16.274;2022-12-29T02:35:35;0.80;98.80
49124;DHT22;48506;48.202;16.274;2022-12-29T02:45:51;0.70;98.90
49124;DHT22;48506;48.202;16.274;2022-12-29T02:49:05;0.70;98.80
49124;DHT22;48506;48.202;16.274;2022-12-29T02:51:27;0.70;98.90
49124;DHT22;48506;48.202;16.274;2022-12-29T02:53:56;0.70;98.90
49124;DHT22;48506;48.202;16.274;2022-12-29T02:56:40;0.70;98.80
49124;DHT22;48506;48.202;16.274;2022-12-29T02:59:06;0.70;98.70
49124;DHT22;48506;48.202;16.274;2022-12-29T03:04:37;0.70;98.90
49124;DHT22;48506;48.202;16.274;2022-12-29T03:24:17;0.70;98.90
49124;DHT22;48506;48.202;16.274;2022-12-29T03:26:45;0.70;99.20
49124;DHT22;48506;48.202;16.274;2022-12-29T03:29:14;0.70;99.20
49124;DHT22;48506;48.202;16.274;2022-12-29T03:31:42;0.80;99.40
49124;DHT22;48506;48.202;16.274;2022-12-29T03:34:10;0.80;99.50
49124;DHT22;48506;48.202;16.274;2022-12-29T03:36:47;0.90;99.30
49124;DHT22;48506;48.202;16.274;2022-12-29T03:39:15;0.90;99.30
49124;DHT22;48506;48.202;16.274;2022-12-29T03:41:44;0.90;99.40
49124;DHT22;48506;48.202;16.274;2022-12-29T03:44:11;0.90;99.20
49124;DHT22;48506;48.202;16.274;2022-12-29T03:46:38;0.80;99.30
49124;DHT22;48506;48.202;16.274;2022-12-29T03:49:04;0.80;99.40
49124;DHT22;48506;48.202;16.274;2022-12-29T03:51:30;0.80;99.40
49124;DHT22;48506;48.202;16.274;2022-12-29T03:53:55;0.90;99.40
49124;DHT22;48506;48.202;16.274;2022-12-29T03:56:21;0.90;99.40
49124;DHT22;48506;48.202;16.274;2022-12-29T03:58:47;0.90;99.30
49124;DHT22;48506;48.202;16.274;2022-12-29T04:01:13;0.90;99.20
49124;DHT22;48506;48.202;16.274;2022-12-29T04:03:39;0.90;99.10
49124;DHT22;48506;48.202;16.274;2022-12-29T04:06:05;0.90;99.10
49124;DHT22;48506;48.202;16.274;2022-12-29T04:08:31;0.80;99.10
49124;DHT22;48506;48.202;16.274;2022-12-29T04:10:57;0.90;99.20
49124;DHT22;48506;48.202;16.274;2022-12-29T04:13:23;0.90;99.20
49124;DHT22;48506;48.202;16.274;2022-12-29T04:15:49;0.90;99.20
49124;DHT22;48506;48.202;16.274;2022-12-29T04:18:15;0.90;99.20
49124;DHT22;48506;48.202;16.274;2022-12-29T04:20:42;0.90;99.30
49124;DHT22;48506;48.202;16.274;2022-12-29T04:23:31;0.90;99.30
49124;DHT22;48506;48.202;16.274;2022-12-29T04:25:57;0.90;99.30
49124;DHT22;48506;48.202;16.274;2022-12-29T04:28:23;0.90;99.30
49124;DHT22;48506;48.202;16.274;2022-12-29T04:30:50;0.90;99.60
49124;DHT22;48506;48.202;16.274;2022-12-29T04:33:16;0.90;99.90
49124;DHT22;48506;48.202;16.274;2022-12-29T04:35:43;1.00;99.90
49124;DHT22;48506;48.202;16.274;2022-12-29T04:38:09;1.10;99.90
49124;DHT22;48506;48.202;16.274;2022-12-29T04:40:37;1.10;99.90
49124;DHT22;48506;48.202;16.274;2022-12-29T04:43:03;1.20;99.90
49124;DHT22;48506;48.202;16.274;2022-12-29T04:45:29;1.20;99.90
49124;DHT22;48506;48.202;16.274;2022-12-29T04:47:55;1.20;99.90
49124;DHT22;48506;48.202;16.274;2022-12-29T04:50:21;1.30;99.90
49124;DHT22;48506;48.202;16.274;2022-12-29T04:52:47;1.30;99.90
49124;DHT22;48506;48.202;16.274;2022-12-29T04:55:13;1.40;99.90
49124;DHT22;48506;48.202;16.274;2022-12-29T04:57:39;1.30;99.90
49124;DHT22;48506;48.202;16.274;2022-12-29T05:00:05;1.40;99.90
49124;DHT22;48506;48.202;16.274;2022-12-29T05:02:31;1.40;99.90
49124;DHT22;48506;48.202;16.274;2022-12-29T05:04:57;1.40;99.90
49124;DHT22;48506;48.202;16.274;2022-12-29T05:07:23;1.40;99.90
49124;DHT22;48506;48.202;16.274;2022-12-29T05:09:50;1.40;99.90
49124;DHT22;48506;48.202;16.274;2022-12-29T05:12:16;1.40;99.90
49124;DHT22;48506;48.202;16.274;2022-12-29T05:14:42;1.40;99.90
49124;DHT22;48506;48.202;16.274;2022-12-29T05:17:08;1.40;99.90
49124;DHT22;48506;48.202;16.274;2022-12-29T05:19:34;1.40;99.90
49124;DHT22;48506;48.202;16.274;2022-12-29T05:22:00;1.40;99.90
49124;DHT22;48506;48.202;16.274;2022-12-29T05:24:26;1.40;99.90
49124;DHT22;48506;48.202;16.274;2022-12-29T05:26:52;1.40;99.90
49124;DHT22;48506;48.202;16.274;2022-12-29T05:29:18;1.40;99.90
49124;DHT22;48506;48.202;16.274;2022-12-29T05:31:44;1.40;99.90
49124;DHT22;48506;48.202;16.274;2022-12-29T05:34:13;1.40;99.80
49124;DHT22;48506;48.202;16.274;2022-12-29T05:36:39;1.40;99.70
49124;DHT22;48506;48.202;16.274;2022-12-29T05:39:05;1.30;99.50
49124;DHT22;48506;48.202;16.274;2022-12-29T05:41:33;1.30;99.50
49124;DHT22;48506;48.202;16.274;2022-12-29T05:44:00;1.20;99.50
49124;DHT22;48506;48.202;16.274;2022-12-29T05:46:27;1.10;99.40
49124;DHT22;48506;48.202;16.274;2022-12-29T05:48:53;1.10;99.30
49124;DHT22;48506;48.202;16.274;2022-12-29T05:51:20;1.10;99.30
49124;DHT22;48506;48.202;16.274;2022-12-29T05:53:46;1.10;99.40
49124;DHT22;48506;48.202;16.274;2022-12-29T05:56:12;1.00;99.50
49124;DHT22;48506;48.202;16.274;2022-12-29T05:58:38;1.00;99.50
49124;DHT22;48506;48.202;16.274;2022-12-29T06:01:04;1.00;99.60
49124;DHT22;48506;48.202;16.274;2022-12-29T06:03:30;1.00;99.80
49124;DHT22;48506;48.202;16.274;2022-12-29T06:05:57;1.00;99.80
49124;DHT22;48506;48.202;16.274;2022-12-29T06:08:23;1.10;99.80
49124;DHT22;48506;48.202;16.274;2022-12-29T06:10:50;1.00;99.80
49124;DHT22;48506;48.202;16.274;2022-12-29T06:13:16;1.10;99.70
49124;DHT22;48506;48.202;16.274;2022-12-29T06:15:42;1.00;99.70
49124;DHT22;48506;48.202;16.274;2022-12-29T06:18:08;1.00;99.60
49124;DHT22;48506;48.202;16.274;2022-12-29T06:20:33;1.00;99.70
49124;DHT22;48506;48.202;16.274;2022-12-29T06:23:00;1.00;99.70
49124;DHT22;48506;48.202;16.274;2022-12-29T06:25:25;1.00;99.80
49124;DHT22;48506;48.202;16.274;2022-12-29T06:27:51;1.00;99.70
49124;DHT22;48506;48.202;16.274;2022-12-29T06:30:17;1.00;99.80
49124;DHT22;48506;48.202;16.274;2022-12-29T06:32:44;1.00;99.80
49124;DHT22;48506;48.202;16.274;2022-12-29T06:35:10;1.00;99.70
49124;DHT22;48506;48.202;16.274;2022-12-29T06:37:36;1.00;99.80
49124;DHT22;48506;48.202;16.274;2022-12-29T06:40:02;1.00;99.80
49124;DHT22;48506;48.202;16.274;2022-12-29T06:42:28;1.00;99.90
49124;DHT22;48506;48.202;16.274;2022-12-29T06:44:53;1.00;99.90
49124;DHT22;48506;48.202;16.274;2022-12-29T06:47:19;0.90;99.90
49124;DHT22;48506;48.202;16.274;2022-12-29T06:49:45;0.90;99.90
49124;DHT22;48506;48.202;16.274;2022-12-29T06:52:12;1.00;99.90
49124;DHT22;48506;48.202;16.274;2022-12-29T06:54:38;1.00;99.90
49124;DHT22;48506;48.202;16.274;2022-12-29T06:57:04;1.00;99.90
49124;DHT22;48506;48.202;16.274;2022-12-29T06:59:30;1.00;99.90
49124;DHT22;48506;48.202;16.274;2022-12-29T07:01:55;1.00;99.90
49124;DHT22;48506;48.202;16.274;2022-12-29T07:04:21;1.00;99.90
49124;DHT22;48506;48.202;16.274;2022-12-29T07:06:47;1.00;99.90
49124;DHT22;48506;48.202;16.274;2022-12-29T07:09:13;1.10;99.90
49124;DHT22;48506;48.202;16.274;2022-12-29T07:11:39;1.20;99.90
49124;DHT22;48506;48.202;16.274;2022-12-29T07:14:05;1.20;99.90
49124;DHT22;48506;48.202;16.274;2022-12-29T07:16:32;1.30;99.90
49124;DHT22;48506;48.202;16.274;2022-12-29T07:19:00;1.30;99.90
49124;DHT22;48506;48.202;16.274;2022-12-29T07:21:25;1.40;99.90
49124;DHT22;48506;48.202;16.274;2022-12-29T07:23:51;1.40;99.90
49124;DHT22;48506;48.202;16.274;2022-12-29T07:26:17;1.50;99.90
49124;DHT22;48506;48.202;16.274;2022-12-29T07:28:43;1.50;99.90
49124;DHT22;48506;48.202;16.274;2022-12-29T07:31:18;1.50;99.90
49124;DHT22;48506;48.202;16.274;2022-12-29T07:33:45;1.50;99.90
49124;DHT22;48506;48.202;16.274;2022-12-29T07:36:11;1.60;99.90
49124;DHT22;48506;48.202;16.274;2022-12-29T07:38:38;1.60;99.90
49124;DHT22;48506;48.202;16.274;2022-12-29T07:41:04;1.60;99.90
49124;DHT22;48506;48.202;16.274;2022-12-29T07:43:30;1.70;99.90
49124;DHT22;48506;48.202;16.274;2022-12-29T07:45:56;1.80;99.90
49124;DHT22;48506;48.202;16.274;2022-12-29T07:48:22;1.80;99.90
49124;DHT22;48506;48.202;16.274;2022-12-29T07:50:48;1.80;99.90
49124;DHT22;48506;48.202;16.274;2022-12-29T07:53:14;1.80;99.90
49124;DHT22;48506;48.202;16.274;2022-12-29T07:55:41;1.80;99.90
49124;DHT22;48506;48.202;16.274;2022-12-29T07:58:07;1.90;99.90
49124;DHT22;48506;48.202;16.274;2022-12-29T08:00:33;1.90;99.90
49124;DHT22;48506;48.202;16.274;2022-12-29T08:02:59;1.90;99.90
49124;DHT22;48506;48.202;16.274;2022-12-29T08:05:25;2.00;99.90
49124;DHT22;48506;48.202;16.274;2022-12-29T08:07:51;2.00;99.90
49124;DHT22;48506;48.202;16.274;2022-12-29T08:10:18;2.10;99.90
49124;DHT22;48506;48.202;16.274;2022-12-29T08:12:44;2.10;99.90
49124;DHT22;48506;48.202;16.274;2022-12-29T08:15:11;2.10;99.90
49124;DHT22;48506;48.202;16.274;2022-12-29T08:17:38;2.20;99.90
49124;DHT22;48506;48.202;16.274;2022-12-29T08:20:05;2.20;99.90
49124;DHT22;48506;48.202;16.274;2022-12-29T08:22:31;2.30;99.90
49124;DHT22;48506;48.202;16.274;2022-12-29T08:24:57;2.30;99.90
49124;DHT22;48506;48.202;16.274;2022-12-29T08:27:23;2.40;99.90
49124;DHT22;48506;48.202;16.274;2022-12-29T08:29:49;2.40;99.90
49124;DHT22;48506;48.202;16.274;2022-12-29T08:32:15;2.40;99.90
49124;DHT22;48506;48.202;16.274;2022-12-29T08:34:41;2.50;99.90
49124;DHT22;48506;48.202;16.274;2022-12-29T08:37:07;2.50;99.90
49124;DHT22;48506;48.202;16.274;2022-12-29T08:39:33;2.50;99.90
49124;DHT22;48506;48.202;16.274;2022-12-29T08:42:00;2.50;99.90
49124;DHT22;48506;48.202;16.274;2022-12-29T08:44:29;2.50;99.90
49124;DHT22;48506;48.202;16.274;2022-12-29T08:46:54;2.50;99.90
49124;DHT22;48506;48.202;16.274;2022-12-29T08:49:20;2.60;99.90
49124;DHT22;48506;48.202;16.274;2022-12-29T08:51:46;2.60;99.90
49124;DHT22;48506;48.202;16.274;2022-12-29T08:54:12;2.70;99.90
49124;DHT22;48506;48.202;16.274;2022-12-29T08:56:38;2.70;99.90
49124;DHT22;48506;48.202;16.274;2022-12-29T08:59:04;2.70;99.90
49124;DHT22;48506;48.202;16.274;2022-12-29T09:01:30;2.70;99.90
49124;DHT22;48506;48.202;16.274;2022-12-29T09:03:56;2.70;99.90
49124;DHT22;48506;48.202;16.274;2022-12-29T09:06:22;2.70;99.90
49124;DHT22;48506;48.202;16.274;2022-12-29T09:08:48;2.80;99.90
49124;DHT22;48506;48.202;16.274;2022-12-29T09:11:20;2.80;99.90
49124;DHT22;48506;48.202;16.274;2022-12-29T09:13:47;2.90;99.90
49124;DHT22;48506;48.202;16.274;2022-12-29T09:16:14;2.90;99.90
49124;DHT22;48506;48.202;16.274;2022-12-29T09:18:41;2.90;99.90
49124;DHT22;48506;48.202;16.274;2022-12-29T09:21:09;3.00;99.90
49124;DHT22;48506;48.202;16.274;2022-12-29T09:23:35;3.00;99.90
49124;DHT22;48506;48.202;16.274;2022-12-29T09:26:02;3.00;99.90
49124;DHT22;48506;48.202;16.274;2022-12-29T09:28:28;3.00;99.90
49124;DHT22;48506;48.202;16.274;2022-12-29T09:30:58;3.00;99.90
49124;DHT22;48506;48.202;16.274;2022-12-29T09:33:25;3.00;99.90
49124;DHT22;48506;48.202;16.274;2022-12-29T09:35:54;3.10;99.90
49124;DHT22;48506;48.202;16.274;2022-12-29T09:38:21;3.10;99.90
49124;DHT22;48506;48.202;16.274;2022-12-29T09:40:53;3.20;99.90
49124;DHT22;48506;48.202;16.274;2022-12-29T09:43:40;3.20;99.90
49124;DHT22;48506;48.202;16.274;2022-12-29T09:46:38;3.20;99.90
49124;DHT22;48506;48.202;16.274;2022-12-29T09:52:02;3.10;99.90
49124;DHT22;48506;48.202;16.274;2022-12-29T09:57:01;3.10;99.90
49124;DHT22;48506;48.202;16.274;2022-12-29T09:59:39;3.10;99.90
49124;DHT22;48506;48.202;16.274;2022-12-29T10:05:35;3.10;99.90
49124;DHT22;48506;48.202;16.274;2022-12-29T10:08:15;3.00;99.90
49124;DHT22;48506;48.202;16.274;2022-12-29T10:11:19;3.00;99.90
49124;DHT22;48506;48.202;16.274;2022-12-29T10:19:16;3.10;99.90
49124;DHT22;48506;48.202;16.274;2022-12-29T10:21:47;3.20;99.90
49124;DHT22;48506;48.202;16.274;2022-12-29T10:24:17;3.30;99.90
49124;DHT22;48506;48.202;16.274;2022-12-29T10:26:46;3.30;99.90
49124;DHT22;48506;48.202;16.274;2022-12-29T10:29:19;3.20;99.90
49124;DHT22;48506;48.202;16.274;2022-12-29T10:34:27;3.20;99.90
49124;DHT22;48506;48.202;16.274;2022-12-29T10:39:52;3.20;99.90
49124;DHT22;48506;48.202;16.274;2022-12-29T10:42:33;3.20;99.90
49124;DHT22;48506;48.202;16.274;2022-12-29T10:45:03;3.20;99.90
49124;DHT22;48506;48.202;16.274;2022-12-29T10:47:34;3.20;99.90
49124;DHT22;48506;48.202;16.274;2022-12-29T10:50:02;3.20;99.90
49124;DHT22;48506;48.202;16.274;2022-12-29T10:52:29;3.20;99.90
49124;DHT22;48506;48.202;16.274;2022-12-29T10:55:05;3.30;99.90
49124;DHT22;48506;48.202;16.274;2022-12-29T10:57:34;3.30;99.90
49124;DHT22;48506;48.202;16.274;2022-12-29T11:00:18;3.20;99.90
49124;DHT22;48506;48.202;16.274;2022-12-29T11:06:26;3.30;99.90
49124;DHT22;48506;48.202;16.274;2022-12-29T11:11:35;3.30;99.90
49124;DHT22;48506;48.202;16.274;2022-12-29T11:14:12;3.30;99.90
49124;DHT22;48506;48.202;16.274;2022-12-29T11:16:40;3.30;99.90
49124;DHT22;48506;48.202;16.274;2022-12-29T11:19:28;3.30;99.90
49124;DHT22;48506;48.202;16.274;2022-12-29T11:21:54;3.30;99.90
49124;DHT22;48506;48.202;16.274;2022-12-29T11:24:27;3.30;99.90
49124;DHT22;48506;48.202;16.274;2022-12-29T11:26:56;3.30;99.90
49124;DHT22;48506;48.202;16.274;2022-12-29T11:29:39;3.30;99.90
49124;DHT22;48506;48.202;16.274;2022-12-29T11:32:22;3.30;99.90
49124;DHT22;48506;48.202;16.274;2022-12-29T11:34:49;3.40;99.90
49124;DHT22;48506;48.202;16.274;2022-12-29T11:37:30;3.50;99.90
49124;DHT22;48506;48.202;16.274;2022-12-29T11:40:03;3.50;99.90
49124;DHT22;48506;48.202;16.274;2022-12-29T11:42:40;3.40;99.90
49124;DHT22;48506;48.202;16.274;2022-12-29T11:45:24;3.40;99.90
49124;DHT22;48506;48.202;16.274;2022-12-29T11:48:12;3.40;99.90
49124;DHT22;48506;48.202;16.274;2022-12-29T11:50:41;3.50;99.90
49124;DHT22;48506;48.202;16.274;2022-12-29T11:53:21;3.50;99.90
49124;DHT22;48506;48.202;16.274;2022-12-29T11:55:52;3.50;99.90
49124;DHT22;48506;48.202;16.274;2022-12-29T11:58:19;3.50;99.90
49124;DHT22;48506;48.202;16.274;2022-12-29T12:00:46;3.50;99.90
49124;DHT22;48506;48.202;16.274;2022-12-29T12:03:24;3.50;99.90
49124;DHT22;48506;48.202;16.274;2022-12-29T12:05:58;3.50;99.90
49124;DHT22;48506;48.202;16.274;2022-12-29T12:11:09;3.60;99.90
49124;DHT22;48506;48.202;16.274;2022-12-29T12:16:24;3.70;99.90
49124;DHT22;48506;48.202;16.274;2022-12-29T12:19:20;3.70;99.90
49124;DHT22;48506;48.202;16.274;2022-12-29T12:21:51;3.70;99.90
49124;DHT22;48506;48.202;16.274;2022-12-29T12:24:39;3.70;99.90
49124;DHT22;48506;48.202;16.274;2022-12-29T12:30:03;3.70;99.90
49124;DHT22;48506;48.202;16.274;2022-12-29T12:38:37;3.80;99.90
49124;DHT22;48506;48.202;16.274;2022-12-29T13:00:54;4.10;99.90
49124;DHT22;48506;48.202;16.274;2022-12-29T13:03:47;4.10;99.90
49124;DHT22;48506;48.202;16.274;2022-12-29T13:17:24;4.30;99.90
49124;DHT22;48506;48.202;16.274;2022-12-29T13:29:03;4.40;99.90
49124;DHT22;48506;48.202;16.274;2022-12-29T13:31:57;4.50;99.90
49124;DHT22;48506;48.202;16.274;2022-12-29T13:36:58;4.60;99.90
49124;DHT22;48506;48.202;16.274;2022-12-29T13:39:48;4.60;99.90
49124;DHT22;48506;48.202;16.274;2022-12-29T13:42:18;4.60;99.90
49124;DHT22;48506;48.202;16.274;2022-12-29T13:44:55;4.50;99.90
49124;DHT22;48506;48.202;16.274;2022-12-29T13:47:36;4.50;99.90
49124;DHT22;48506;48.202;16.274;2022-12-29T13:50:08;4.50;99.90
49124;DHT22;48506;48.202;16.274;2022-12-29T13:52:43;4.40;99.90
49124;DHT22;48506;48.202;16.274;2022-12-29T13:58:00;4.40;99.90
49124;DHT22;48506;48.202;16.274;2022-12-29T14:00:35;4.40;99.90
49124;DHT22;48506;48.202;16.274;2022-12-29T14:03:18;4.40;99.90
49124;DHT22;48506;48.202;16.274;2022-12-29T14:06:18;4.40;99.90
49124;DHT22;48506;48.202;16.274;2022-12-29T14:08:46;4.30;99.90
49124;DHT22;48506;48.202;16.274;2022-12-29T14:11:16;4.30;99.90
49124;DHT22;48506;48.202;16.274;2022-12-29T14:13:46;4.30;99.90
49124;DHT22;48506;48.202;16.274;2022-12-29T14:16:26;4.30;99.90
49124;DHT22;48506;48.202;16.274;2022-12-29T14:18:53;4.30;99.90
49124;DHT22;48506;48.202;16.274;2022-12-29T14:21:25;4.30;99.90
49124;DHT22;48506;48.202;16.274;2022-12-29T14:26:57;4.40;99.90
49124;DHT22;48506;48.202;16.274;2022-12-29T14:31:54;4.40;99.90
49124;DHT22;48506;48.202;16.274;2022-12-29T14:36:53;4.40;99.90
49124;DHT22;48506;48.202;16.274;2022-12-29T14:42:05;4.40;99.90
49124;DHT22;48506;48.202;16.274;2022-12-29T14:44:32;4.40;99.90
49124;DHT22;48506;48.202;16.274;2022-12-29T14:47:04;4.40;99.90
49124;DHT22;48506;48.202;16.274;2022-12-29T14:49:42;4.30;99.90
49124;DHT22;48506;48.202;16.274;2022-12-29T14:52:54;4.30;99.90
49124;DHT22;48506;48.202;16.274;2022-12-29T14:58:20;4.20;99.90
49124;DHT22;48506;48.202;16.274;2022-12-29T15:00:48;4.20;99.90
49124;DHT22;48506;48.202;16.274;2022-12-29T15:05:56;4.20;99.90
49124;DHT22;48506;48.202;16.274;2022-12-29T15:11:44;4.10;99.90
49124;DHT22;48506;48.202;16.274;2022-12-29T15:16:56;4.00;99.90
49124;DHT22;48506;48.202;16.274;2022-12-29T15:19:25;4.00;99.90
49124;DHT22;48506;48.202;16.274;2022-12-29T15:21:53;4.00;99.90
49124;DHT22;48506;48.202;16.274;2022-12-29T15:24:20;4.00;99.90
49124;DHT22;48506;48.202;16.274;2022-12-29T15:26:49;3.90;99.90
49124;DHT22;48506;48.202;16.274;2022-12-29T15:29:48;3.90;99.90
49124;DHT22;48506;48.202;16.274;2022-12-29T15:34:48;3.80;99.90
49124;DHT22;48506;48.202;16.274;2022-12-29T15:37:21;3.70;99.90
49124;DHT22;48506;48.202;16.274;2022-12-29T15:39:48;3.70;99.90
49124;DHT22;48506;48.202;16.274;2022-12-29T15:45:09;3.70;99.90
49124;DHT22;48506;48.202;16.274;2022-12-29T15:47:37;3.70;99.90
49124;DHT22;48506;48.202;16.274;2022-12-29T15:50:06;3.70;99.90
49124;DHT22;48506;48.202;16.274;2022-12-29T15:52:35;3.70;99.90
49124;DHT22;48506;48.202;16.274;2022-12-29T15:55:05;3.70;99.90
49124;DHT22;48506;48.202;16.274;2022-12-29T15:57:42;3.70;99.90
49124;DHT22;48506;48.202;16.274;2022-12-29T16:00:29;3.60;99.90
49124;DHT22;48506;48.202;16.274;2022-12-29T16:02:58;3.60;99.90
49124;DHT22;48506;48.202;16.274;2022-12-29T16:05:35;3.60;99.90
49124;DHT22;48506;48.202;16.274;2022-12-29T16:08:02;3.60;99.90
49124;DHT22;48506;48.202;16.274;2022-12-29T16:13:45;3.60;99.90
49124;DHT22;48506;48.202;16.274;2022-12-29T16:16:22;3.60;99.90
49124;DHT22;48506;48.202;16.274;2022-12-29T16:18:50;3.60;99.90
49124;DHT22;48506;48.202;16.274;2022-12-29T16:21:21;3.60;99.90
49124;DHT22;48506;48.202;16.274;2022-12-29T16:23:51;3.60;99.90
49124;DHT22;48506;48.202;16.274;2022-12-29T16:26:21;3.60;99.90
49124;DHT22;48506;48.202;16.274;2022-12-29T16:28:53;3.70;99.90
49124;DHT22;48506;48.202;16.274;2022-12-29T16:31:23;3.60;99.90
49124;DHT22;48506;48.202;16.274;2022-12-29T16:33:52;3.60;99.90
49124;DHT22;48506;48.202;16.274;2022-12-29T16:36:29;3.60;99.90
49124;DHT22;48506;48.202;16.274;2022-12-29T16:41:53;3.50;99.90
49124;DHT22;48506;48.202;16.274;2022-12-29T16:44:30;3.50;99.90
49124;DHT22;48506;48.202;16.274;2022-12-29T16:47:00;3.50;99.90
49124;DHT22;48506;48.202;16.274;2022-12-29T16:49:28;3.50;99.90
49124;DHT22;48506;48.202;16.274;2022-12-29T16:51:55;3.50;99.90
49124;DHT22;48506;48.202;16.274;2022-12-29T16:54:24;3.50;99.90
49124;DHT22;48506;48.202;16.274;2022-12-29T16:56:52;3.50;99.90
49124;DHT22;48506;48.202;16.274;2022-12-29T16:59:30;3.50;99.90
49124;DHT22;48506;48.202;16.274;2022-12-29T17:01:59;3.50;99.90
49124;DHT22;48506;48.202;16.274;2022-12-29T17:04:26;3.50;99.90
49124;DHT22;48506;48.202;16.274;2022-12-29T17:06:54;3.50;99.90
49124;DHT22;48506;48.202;16.274;2022-12-29T17:09:22;3.50;99.90
49124;DHT22;48506;48.202;16.274;2022-12-29T17:11:51;3.50;99.90
49124;DHT22;48506;48.202;16.274;2022-12-29T17:17:40;3.50;99.90
49124;DHT22;48506;48.202;16.274;2022-12-29T17:20:19;3.50;99.90
49124;DHT22;48506;48.202;16.274;2022-12-29T17:22:46;3.50;99.90
49124;DHT22;48506;48.202;16.274;2022-12-29T17:25:14;3.50;99.90
49124;DHT22;48506;48.202;16.274;2022-12-29T17:30:20;3.60;99.90
49124;DHT22;48506;48.202;16.274;2022-12-29T17:33:12;3.60;99.90
49124;DHT22;48506;48.202;16.274;2022-12-29T17:35:39;3.60;99.90
49124;DHT22;48506;48.202;16.274;2022-12-29T17:38:25;3.70;99.90
49124;DHT22;48506;48.202;16.274;2022-12-29T17:40:52;3.70;99.90
49124;DHT22;48506;48.202;16.274;2022-12-29T17:43:18;3.70;99.90
49124;DHT22;48506;48.202;16.274;2022-12-29T17:45:48;3.80;99.90
49124;DHT22;48506;48.202;16.274;2022-12-29T17:48:17;3.80;99.90
49124;DHT22;48506;48.202;16.274;2022-12-29T17:50:46;3.80;99.90
49124;DHT22;48506;48.202;16.274;2022-12-29T17:53:17;3.80;99.90
49124;DHT22;48506;48.202;16.274;2022-12-29T17:55:44;3.90;99.90
49124;DHT22;48506;48.202;16.274;2022-12-29T17:58:19;3.90;99.90
49124;DHT22;48506;48.202;16.274;2022-12-29T18:00:47;4.00;99.90
49124;DHT22;48506;48.202;16.274;2022-12-29T18:03:37;4.00;99.90
49124;DHT22;48506;48.202;16.274;2022-12-29T18:06:04;4.10;99.90
49124;DHT22;48506;48.202;16.274;2022-12-29T18:08:36;4.00;99.90
49124;DHT22;48506;48.202;16.274;2022-12-29T18:11:08;4.10;99.90
49124;DHT22;48506;48.202;16.274;2022-12-29T18:13:39;4.10;99.90
49124;DHT22;48506;48.202;16.274;2022-12-29T18:16:07;4.10;99.90
49124;DHT22;48506;48.202;16.274;2022-12-29T18:18:35;4.10;99.90
49124;DHT22;48506;48.202;16.274;2022-12-29T18:21:01;4.10;99.90
49124;DHT22;48506;48.202;16.274;2022-12-29T18:23:30;4.10;99.90
49124;DHT22;48506;48.202;16.274;2022-12-29T18:26:11;4.10;99.90
49124;DHT22;48506;48.202;16.274;2022-12-29T18:28:40;4.00;99.90
49124;DHT22;48506;48.202;16.274;2022-12-29T18:33:41;3.90;99.90
49124;DHT22;48506;48.202;16.274;2022-12-29T18:36:10;3.90;99.90
49124;DHT22;48506;48.202;16.274;2022-12-29T18:38:36;4.00;99.90
49124;DHT22;48506;48.202;16.274;2022-12-29T18:41:02;4.00;99.90
49124;DHT22;48506;48.202;16.274;2022-12-29T18:43:29;3.90;99.90
49124;DHT22;48506;48.202;16.274;2022-12-29T18:45:55;4.00;99.90
49124;DHT22;48506;48.202;16.274;2022-12-29T18:48:21;3.90;99.90